createdAt,value
2022-09-24T00:02:47.113Z,4.22
2022-09-24T00:07:48.767Z,4.63
2022-09-24T00:12:52.081Z,4.60
2022-09-24T00:17:53.597Z,4.13
2022-09-24T00:22:55.119Z,4.43
2022-09-24T00:27:56.636Z,4.15
2022-09-24T00:32:58.156Z,4.50
2022-09-24T00:37:59.792Z,4.13
2022-09-24T00:43:01.666Z,4.53
2022-09-24T00:48:03.230Z,4.88
2022-09-24T00:53:10.981Z,4.80
2022-09-24T00:58:13.315Z,4.38
2022-09-24T01:03:18.909Z,4.53
2022-09-24T01:08:21.139Z,4.65
2022-09-24T01:13:49.856Z,4.50
2022-09-24T01:19:09.269Z,4.28
2022-09-24T01:24:49.332Z,4.40
2022-09-24T01:30:08.284Z,4.28
2022-09-24T01:35:16.396Z,4.43
2022-09-24T01:40:19.066Z,4.30
2022-09-24T01:45:21.383Z,4.13
2022-09-24T01:50:24.694Z,4.22
2022-09-24T01:55:28.973Z,4.05
2022-09-24T02:00:30.582Z,4.15
2022-09-24T02:05:39.629Z,4.35
2022-09-24T02:10:48.195Z,4.18
2022-09-24T02:15:51.084Z,4.38
2022-09-24T02:20:53.635Z,4.15
2022-09-24T02:26:02.423Z,3.88
2022-09-24T02:31:14.005Z,3.72
2022-09-24T02:36:24.890Z,4.40
2022-09-24T02:41:27.170Z,4.05
2022-09-24T02:46:28.935Z,4.57
2022-09-24T02:51:30.537Z,4.72
2022-09-24T02:56:32.198Z,4.88
2022-09-24T03:01:34.460Z,3.85
2022-09-24T03:06:36.864Z,4.50
2022-09-24T03:11:38.589Z,3.90
2022-09-24T03:16:40.119Z,4.40
2022-09-24T03:21:41.679Z,4.22
2022-09-24T03:26:43.182Z,4.30
2022-09-24T03:31:44.789Z,3.88
2022-09-24T03:36:47.453Z,4.28
2022-09-24T03:41:48.990Z,4.28
2022-09-24T03:46:50.563Z,4.18
2022-09-24T03:51:52.135Z,4.38
2022-09-24T03:56:53.649Z,4.30
2022-09-24T04:01:55.333Z,4.43
2022-09-24T04:06:57.172Z,4.30
2022-09-24T04:11:59.153Z,3.90
2022-09-24T04:17:00.773Z,4.65
2022-09-24T04:22:02.374Z,4.47
2022-09-24T04:27:04.094Z,4.20
2022-09-24T04:32:05.615Z,4.65
2022-09-24T04:37:07.185Z,4.45
2022-09-24T04:42:08.719Z,4.55
2022-09-24T04:47:11.472Z,4.80
2022-09-24T04:52:16.410Z,4.53
2022-09-24T04:57:18.002Z,4.22
2022-09-24T05:02:19.677Z,4.35
2022-09-24T05:07:21.274Z,4.68
2022-09-24T05:12:22.814Z,4.55
2022-09-24T05:17:24.421Z,4.45
2022-09-24T05:22:30.162Z,4.38
2022-09-24T05:27:31.754Z,4.35
2022-09-24T05:32:34.033Z,4.43
2022-09-24T05:37:36.652Z,4.40
2022-09-24T05:42:38.185Z,4.53
2022-09-24T05:47:39.707Z,4.60
2022-09-24T05:52:41.318Z,4.85
2022-09-24T05:57:42.887Z,4.90
2022-09-24T06:02:44.462Z,4.65
2022-09-24T06:07:46.084Z,4.57
2022-09-24T06:12:47.828Z,4.13
2022-09-24T06:17:49.354Z,4.45
2022-09-24T06:22:50.921Z,4.93
2022-09-24T06:28:00.495Z,4.70
2022-09-24T06:33:07.217Z,4.82
2022-09-24T06:38:11.009Z,4.43
2022-09-24T06:43:13.541Z,5.55
2022-09-24T06:48:15.160Z,4.80
2022-09-24T06:53:16.734Z,5.07
2022-09-24T06:58:22.406Z,4.88
2022-09-24T07:03:24.020Z,5.07
2022-09-24T07:08:25.644Z,4.82
2022-09-24T07:13:27.250Z,4.70
2022-09-24T07:18:28.899Z,4.70
2022-09-24T07:23:30.415Z,4.70
2022-09-24T07:28:32.115Z,4.35
2022-09-24T07:33:33.721Z,4.50
2022-09-24T07:38:36.425Z,4.75
2022-09-24T07:43:38.582Z,4.60
2022-09-24T07:48:40.133Z,5.45
2022-09-24T07:53:41.647Z,5.00
2022-09-24T07:58:43.445Z,5.10
2022-09-24T08:03:46.410Z,4.03
2022-09-24T08:08:52.999Z,4.38
2022-09-24T08:13:55.964Z,4.40
2022-09-24T08:18:57.455Z,4.00
2022-09-24T08:23:58.956Z,4.18
2022-09-24T08:29:00.453Z,4.40
2022-09-24T08:34:01.990Z,4.13
2022-09-24T08:39:03.606Z,4.03
2022-09-24T08:44:12.289Z,4.10
2022-09-24T08:49:18.523Z,4.05
2022-09-24T08:54:20.882Z,8.57
2022-09-24T08:59:33.095Z,4.82
2022-09-24T09:04:57.909Z,3.72
2022-09-24T09:10:05.888Z,4.32
2022-09-24T09:15:19.644Z,3.80
2022-09-24T09:20:26.442Z,4.07
2022-09-24T09:25:31.561Z,4.53
2022-09-24T09:30:53.707Z,3.95
2022-09-24T09:36:12.327Z,3.85
2022-09-24T09:41:54.336Z,3.90
2022-09-24T09:47:25.264Z,4.00
2022-09-24T09:52:28.689Z,4.05
2022-09-24T09:57:30.316Z,4.05
2022-09-24T10:02:35.339Z,3.92
2022-09-24T10:07:44.956Z,3.88
2022-09-24T10:12:46.749Z,3.83
2022-09-24T10:17:50.523Z,4.00
2022-09-24T10:22:54.997Z,4.05
2022-09-24T10:28:20.197Z,3.60
2022-09-24T10:33:21.877Z,3.60
2022-09-24T10:38:24.852Z,3.22
2022-09-24T10:43:26.387Z,3.53
2022-09-24T10:48:35.961Z,3.28
2022-09-24T10:54:18.889Z,3.25
2022-09-24T10:59:42.415Z,3.30
2022-09-24T11:05:00.785Z,2.58
2022-09-24T11:10:20.336Z,3.00
2022-09-24T11:15:53.390Z,2.67
2022-09-24T11:21:28.598Z,2.78
2022-09-24T11:26:54.219Z,2.80
2022-09-24T11:32:06.846Z,2.92
2022-09-24T11:37:39.865Z,2.83
2022-09-24T11:43:18.429Z,2.80
2022-09-24T11:48:19.843Z,2.70
2022-09-24T11:53:27.313Z,3.05
2022-09-24T11:58:32.154Z,2.90
2022-09-24T12:03:44.963Z,2.65
2022-09-24T12:08:57.055Z,2.80
2022-09-24T12:14:05.665Z,2.53
2022-09-24T12:19:21.398Z,2.70
2022-09-24T12:24:33.303Z,3.40
2022-09-24T12:30:18.226Z,3.38
2022-09-24T12:35:28.835Z,3.13
2022-09-24T12:40:41.424Z,2.80
2022-09-24T12:45:43.089Z,2.90
2022-09-24T12:50:56.635Z,2.65
2022-09-24T12:56:02.260Z,2.90
2022-09-24T13:01:25.103Z,2.58
2022-09-24T13:06:35.381Z,2.80
2022-09-24T13:11:37.592Z,2.65
2022-09-24T13:16:41.189Z,2.92
2022-09-24T13:21:43.970Z,2.67
2022-09-24T13:26:45.531Z,2.30
2022-09-24T13:31:51.137Z,2.38
2022-09-24T13:37:02.489Z,2.63
2022-09-24T13:42:31.596Z,2.63
2022-09-24T13:47:46.460Z,2.55
2022-09-24T13:53:04.586Z,2.85
2022-09-24T13:58:06.158Z,2.75
2022-09-24T14:03:19.240Z,3.00
2022-09-24T14:08:23.146Z,2.55
2022-09-24T14:13:25.104Z,2.85
2022-09-24T14:18:28.289Z,2.60
2022-09-24T14:23:34.203Z,2.60
2022-09-24T14:28:35.808Z,2.28
2022-09-24T14:33:37.774Z,2.45
2022-09-24T14:38:53.911Z,2.63
2022-09-24T14:44:06.134Z,2.72
2022-09-24T14:49:28.485Z,2.30
2022-09-24T14:54:42.562Z,1.90
2022-09-24T14:59:45.390Z,2.17
2022-09-24T15:04:50.122Z,2.30
2022-09-24T15:09:53.999Z,2.13
2022-09-24T15:15:00.812Z,2.17
2022-09-24T15:20:04.047Z,2.53
2022-09-24T15:25:06.103Z,3.03
2022-09-24T15:30:10.470Z,3.20
2022-09-24T15:35:15.015Z,3.05
2022-09-24T15:40:24.738Z,3.00
2022-09-24T15:45:26.373Z,3.10
2022-09-24T15:50:27.942Z,3.10
2022-09-24T15:55:30.962Z,3.40
2022-09-24T16:00:33.256Z,3.60
2022-09-24T16:05:34.864Z,4.28
2022-09-24T16:10:36.739Z,3.92
2022-09-24T16:15:38.795Z,4.20
2022-09-24T16:20:40.853Z,5.00
2022-09-24T16:25:49.542Z,5.18
2022-09-24T16:30:51.265Z,5.00
2022-09-24T16:35:52.897Z,4.97
2022-09-24T16:41:00.715Z,5.00
2022-09-24T16:46:08.220Z,5.43
2022-09-24T16:51:11.594Z,5.68
2022-09-24T16:56:15.290Z,6.20
2022-09-24T17:01:19.268Z,6.13
2022-09-24T17:06:23.422Z,5.68
2022-09-24T17:11:24.959Z,6.82
2022-09-24T17:16:27.167Z,5.95
2022-09-24T17:21:28.984Z,7.15
2022-09-24T17:26:30.594Z,7.10
2022-09-24T17:31:32.193Z,7.35
2022-09-24T17:36:34.537Z,7.05
2022-09-24T17:41:36.175Z,7.32
2022-09-24T17:46:37.979Z,7.47
2022-09-24T17:51:39.788Z,7.50
2022-09-24T17:56:41.900Z,7.47
2022-09-24T18:01:44.241Z,7.20
2022-09-24T18:06:46.862Z,7.47
2022-09-24T18:11:50.215Z,7.22
2022-09-24T18:16:52.028Z,7.43
2022-09-24T18:21:54.588Z,7.53
2022-09-24T18:26:56.428Z,7.65
2022-09-24T18:31:57.957Z,7.40
2022-09-24T18:36:59.452Z,8.38
2022-09-24T18:42:01.034Z,7.88
2022-09-24T18:47:02.904Z,7.57
2022-09-24T18:52:04.481Z,8.38
2022-09-24T18:57:06.042Z,8.48
2022-09-24T19:02:08.466Z,7.88
2022-09-24T19:07:10.168Z,8.27
2022-09-24T19:12:12.743Z,8.95
2022-09-24T19:17:14.768Z,8.65
2022-09-24T19:22:16.310Z,9.50
2022-09-24T19:27:17.812Z,9.35
2022-09-24T19:32:19.318Z,9.88
2022-09-24T19:37:20.846Z,11.10
2022-09-24T19:42:22.907Z,10.63
2022-09-24T19:47:25.669Z,11.27
2022-09-24T19:52:27.213Z,10.77
2022-09-24T19:57:28.799Z,11.07
2022-09-24T20:02:30.414Z,10.00
2022-09-24T20:07:32.161Z,10.63
2022-09-24T20:12:34.764Z,10.02
2022-09-24T20:17:36.312Z,10.57
2022-09-24T20:22:37.975Z,9.88
2022-09-24T20:27:51.617Z,9.20
2022-09-24T20:32:53.101Z,8.35
2022-09-24T20:37:54.762Z,7.60
2022-09-24T20:42:56.300Z,8.20
2022-09-24T20:47:57.879Z,8.10
2022-09-24T20:52:59.431Z,8.25
2022-09-24T20:58:00.941Z,8.27
2022-09-24T21:03:15.458Z,7.45
2022-09-24T21:08:21.709Z,7.82
2022-09-24T21:13:24.522Z,7.75
2022-09-24T21:18:31.057Z,8.55
2022-09-24T21:23:40.077Z,8.38
2022-09-24T21:28:43.494Z,7.88
2022-09-24T21:33:46.911Z,8.60
2022-09-24T21:38:55.870Z,9.13
2022-09-24T21:43:57.848Z,8.60
2022-09-24T21:49:00.553Z,8.05
2022-09-24T21:54:04.159Z,8.88
2022-09-24T21:59:38.111Z,8.05
2022-09-24T22:04:39.699Z,8.77
2022-09-24T22:09:41.243Z,8.02
2022-09-24T22:14:44.842Z,7.95
2022-09-24T22:19:47.218Z,8.35
2022-09-24T22:24:48.806Z,7.78
2022-09-24T22:29:50.351Z,8.93
2022-09-24T22:35:10.597Z,8.70
2022-09-24T22:40:12.401Z,9.18
2022-09-24T22:45:14.017Z,8.80
2022-09-24T22:50:15.535Z,9.27
2022-09-24T22:55:17.067Z,9.02
2022-09-24T23:00:18.907Z,9.00
2022-09-24T23:05:20.487Z,9.25
2022-09-24T23:10:22.618Z,9.02
2022-09-24T23:15:25.462Z,8.80
2022-09-24T23:20:27.328Z,9.63
2022-09-24T23:25:28.881Z,9.85
2022-09-24T23:30:31.406Z,10.25
2022-09-24T23:35:32.932Z,9.93
2022-09-24T23:40:34.554Z,9.13
2022-09-24T23:45:36.173Z,9.43
2022-09-24T23:50:38.095Z,9.02
2022-09-24T23:55:42.601Z,8.38
